Dunlap, Kansas
Current Conditions -  °F | °C
As of 2:03 AM on Saturday 25 Oct 2014 (Local Time) from KFRI Reporting Station
Clear Clear  
Wind Chill: 57°   Ceiling: Unl
Heat Index: 57°   Visibility: 8mi
Dew Point: 57°   Wind: 5mph
Humidity: 100%   Direction: 330°NNW
Pressure: 30.02"   Gusts: NA
Location:  38.6824°N, 96.5126°W
Report Text: KFRI 250703Z AUTO 33004KT 8SM CLR 14/14 A3002 RMK AO2
Loading
Personal Weather Stations






























Interactive Weather Map
Tropical Storm Tracking
New forecast layout! Learn more

10-Day Weather Forecast

Advertisements
Track Severe Weather on mobile